sensor_id;sensor_type;location;lat;lon;timestamp;temperature;humidity
42615;DHT22;28754;47.700;7.924;2022-07-22T00:00:43;19.60;99.90
42615;DHT22;28754;47.700;7.924;2022-07-22T00:03:31;19.60;99.90
42615;DHT22;28754;47.700;7.924;2022-07-22T00:06:17;19.50;99.90
42615;DHT22;28754;47.700;7.924;2022-07-22T00:09:04;19.50;99.90
42615;DHT22;28754;47.700;7.924;2022-07-22T00:11:51;19.40;99.90
42615;DHT22;28754;47.700;7.924;2022-07-22T00:14:39;19.40;99.90
42615;DHT22;28754;47.700;7.924;2022-07-22T00:17:25;19.40;99.90
42615;DHT22;28754;47.700;7.924;2022-07-22T00:20:12;19.40;99.90
42615;DHT22;28754;47.700;7.924;2022-07-22T00:22:59;19.30;99.90
42615;DHT22;28754;47.700;7.924;2022-07-22T00:25:45;19.10;99.90
42615;DHT22;28754;47.700;7.924;2022-07-22T00:28:32;19.10;99.90
42615;DHT22;28754;47.700;7.924;2022-07-22T00:31:19;19.00;99.90
42615;DHT22;28754;47.700;7.924;2022-07-22T00:34:05;18.90;99.90
42615;DHT22;28754;47.700;7.924;2022-07-22T00:36:53;18.90;99.90
42615;DHT22;28754;47.700;7.924;2022-07-22T00:39:40;19.00;99.90
42615;DHT22;28754;47.700;7.924;2022-07-22T00:42:27;18.90;99.90
42615;DHT22;28754;47.700;7.924;2022-07-22T00:45:14;19.00;99.90
42615;DHT22;28754;47.700;7.924;2022-07-22T00:48:00;19.00;99.90
42615;DHT22;28754;47.700;7.924;2022-07-22T00:50:47;19.00;99.90
42615;DHT22;28754;47.700;7.924;2022-07-22T00:53:34;19.00;99.90
42615;DHT22;28754;47.700;7.924;2022-07-22T00:56:21;19.10;99.90
42615;DHT22;28754;47.700;7.924;2022-07-22T00:59:09;19.10;99.90
42615;DHT22;28754;47.700;7.924;2022-07-22T01:01:58;19.00;99.90
42615;DHT22;28754;47.700;7.924;2022-07-22T01:04:45;19.00;99.90
42615;DHT22;28754;47.700;7.924;2022-07-22T01:07:33;19.00;99.90
42615;DHT22;28754;47.700;7.924;2022-07-22T01:10:20;19.00;99.90
42615;DHT22;28754;47.700;7.924;2022-07-22T01:13:07;19.00;99.90
42615;DHT22;28754;47.700;7.924;2022-07-22T01:15:54;19.00;99.90
42615;DHT22;28754;47.700;7.924;2022-07-22T01:18:42;19.00;99.90
42615;DHT22;28754;47.700;7.924;2022-07-22T01:21:30;19.00;99.90
42615;DHT22;28754;47.700;7.924;2022-07-22T01:24:17;18.90;99.90
42615;DHT22;28754;47.700;7.924;2022-07-22T01:27:04;19.00;99.90
42615;DHT22;28754;47.700;7.924;2022-07-22T01:29:51;19.00;99.90
42615;DHT22;28754;47.700;7.924;2022-07-22T01:32:38;19.00;99.90
42615;DHT22;28754;47.700;7.924;2022-07-22T01:35:25;18.90;99.90
42615;DHT22;28754;47.700;7.924;2022-07-22T01:38:12;18.90;99.90
42615;DHT22;28754;47.700;7.924;2022-07-22T01:41:00;19.00;99.90
42615;DHT22;28754;47.700;7.924;2022-07-22T01:43:48;19.00;99.90
42615;DHT22;28754;47.700;7.924;2022-07-22T01:46:35;19.00;99.90
42615;DHT22;28754;47.700;7.924;2022-07-22T01:49:22;19.00;99.90
42615;DHT22;28754;47.700;7.924;2022-07-22T01:52:09;19.00;99.90
42615;DHT22;28754;47.700;7.924;2022-07-22T01:54:56;19.00;99.90
42615;DHT22;28754;47.700;7.924;2022-07-22T01:57:43;19.00;99.90
42615;DHT22;28754;47.700;7.924;2022-07-22T02:00:38;19.00;99.90
42615;DHT22;28754;47.700;7.924;2022-07-22T02:03:28;18.90;99.90
42615;DHT22;28754;47.700;7.924;2022-07-22T02:06:18;18.90;99.90
42615;DHT22;28754;47.700;7.924;2022-07-22T02:09:06;19.00;99.90
42615;DHT22;28754;47.700;7.924;2022-07-22T02:12:05;18.90;99.90
42615;DHT22;28754;47.700;7.924;2022-07-22T02:14:58;18.90;99.90
42615;DHT22;28754;47.700;7.924;2022-07-22T02:17:45;19.00;99.90
42615;DHT22;28754;47.700;7.924;2022-07-22T02:20:32;18.90;99.90
42615;DHT22;28754;47.700;7.924;2022-07-22T02:23:20;18.90;99.90
42615;DHT22;28754;47.700;7.924;2022-07-22T02:26:07;18.90;99.90
42615;DHT22;28754;47.700;7.924;2022-07-22T02:28:54;18.90;99.90
42615;DHT22;28754;47.700;7.924;2022-07-22T02:31:42;18.80;99.90
42615;DHT22;28754;47.700;7.924;2022-07-22T02:34:29;18.80;99.90
42615;DHT22;28754;47.700;7.924;2022-07-22T02:37:15;18.70;99.90
42615;DHT22;28754;47.700;7.924;2022-07-22T02:40:04;18.70;99.90
42615;DHT22;28754;47.700;7.924;2022-07-22T02:42:53;18.70;99.90
42615;DHT22;28754;47.700;7.924;2022-07-22T02:45:39;18.70;99.90
42615;DHT22;28754;47.700;7.924;2022-07-22T02:48:27;18.70;99.90
42615;DHT22;28754;47.700;7.924;2022-07-22T02:51:14;18.80;99.90
42615;DHT22;28754;47.700;7.924;2022-07-22T02:54:01;18.70;99.90
42615;DHT22;28754;47.700;7.924;2022-07-22T02:56:47;18.70;99.90
42615;DHT22;28754;47.700;7.924;2022-07-22T02:59:34;18.70;99.90
42615;DHT22;28754;47.700;7.924;2022-07-22T03:02:21;18.70;99.90
42615;DHT22;28754;47.700;7.924;2022-07-22T03:05:08;18.70;99.90
42615;DHT22;28754;47.700;7.924;2022-07-22T03:08:02;18.70;99.90
42615;DHT22;28754;47.700;7.924;2022-07-22T03:10:48;18.70;99.90
42615;DHT22;28754;47.700;7.924;2022-07-22T03:13:35;18.60;99.90
42615;DHT22;28754;47.700;7.924;2022-07-22T03:16:22;18.60;99.90
42615;DHT22;28754;47.700;7.924;2022-07-22T03:19:09;18.70;99.90
42615;DHT22;28754;47.700;7.924;2022-07-22T03:21:55;18.60;99.90
42615;DHT22;28754;47.700;7.924;2022-07-22T03:24:42;18.70;99.90
42615;DHT22;28754;47.700;7.924;2022-07-22T03:27:29;18.70;99.90
42615;DHT22;28754;47.700;7.924;2022-07-22T03:30:16;18.70;99.90
42615;DHT22;28754;47.700;7.924;2022-07-22T03:33:03;18.70;99.90
42615;DHT22;28754;47.700;7.924;2022-07-22T03:35:55;18.70;99.90
42615;DHT22;28754;47.700;7.924;2022-07-22T03:38:42;18.70;99.90
42615;DHT22;28754;47.700;7.924;2022-07-22T03:41:29;18.60;99.90
42615;DHT22;28754;47.700;7.924;2022-07-22T03:44:16;18.70;99.90
42615;DHT22;28754;47.700;7.924;2022-07-22T03:47:03;18.70;99.90
42615;DHT22;28754;47.700;7.924;2022-07-22T03:49:50;18.70;99.90
42615;DHT22;28754;47.700;7.924;2022-07-22T03:52:43;18.70;99.90
42615;DHT22;28754;47.700;7.924;2022-07-22T03:55:31;18.70;99.90
42615;DHT22;28754;47.700;7.924;2022-07-22T03:58:19;18.80;99.90
42615;DHT22;28754;47.700;7.924;2022-07-22T04:01:06;18.70;99.90
42615;DHT22;28754;47.700;7.924;2022-07-22T04:03:53;18.80;99.90
42615;DHT22;28754;47.700;7.924;2022-07-22T04:06:50;18.70;99.90
42615;DHT22;28754;47.700;7.924;2022-07-22T04:09:44;18.70;99.90
42615;DHT22;28754;47.700;7.924;2022-07-22T04:12:35;18.80;99.90
42615;DHT22;28754;47.700;7.924;2022-07-22T04:15:37;18.80;99.90
42615;DHT22;28754;47.700;7.924;2022-07-22T04:18:24;18.70;99.90
42615;DHT22;28754;47.700;7.924;2022-07-22T04:21:11;18.70;99.90
42615;DHT22;28754;47.700;7.924;2022-07-22T04:24:13;18.70;99.90
42615;DHT22;28754;47.700;7.924;2022-07-22T04:27:00;18.80;99.90
42615;DHT22;28754;47.700;7.924;2022-07-22T04:29:47;18.80;99.90
42615;DHT22;28754;47.700;7.924;2022-07-22T04:32:35;18.80;99.90
42615;DHT22;28754;47.700;7.924;2022-07-22T04:35:25;18.80;99.90
42615;DHT22;28754;47.700;7.924;2022-07-22T04:38:29;18.80;99.90
42615;DHT22;28754;47.700;7.924;2022-07-22T04:41:20;18.80;99.90
42615;DHT22;28754;47.700;7.924;2022-07-22T04:44:06;18.80;99.90
42615;DHT22;28754;47.700;7.924;2022-07-22T04:46:54;18.90;99.90
42615;DHT22;28754;47.700;7.924;2022-07-22T04:49:40;18.90;99.90
42615;DHT22;28754;47.700;7.924;2022-07-22T04:52:29;18.90;99.90
42615;DHT22;28754;47.700;7.924;2022-07-22T04:55:16;18.90;99.90
42615;DHT22;28754;47.700;7.924;2022-07-22T04:58:03;19.00;99.90
42615;DHT22;28754;47.700;7.924;2022-07-22T05:00:50;19.00;99.90
42615;DHT22;28754;47.700;7.924;2022-07-22T05:03:38;19.00;99.90
42615;DHT22;28754;47.700;7.924;2022-07-22T05:06:26;19.00;99.90
42615;DHT22;28754;47.700;7.924;2022-07-22T05:09:14;19.10;99.90
42615;DHT22;28754;47.700;7.924;2022-07-22T05:12:00;19.20;99.90
42615;DHT22;28754;47.700;7.924;2022-07-22T05:14:47;19.20;99.90
42615;DHT22;28754;47.700;7.924;2022-07-22T05:17:34;19.30;99.90
42615;DHT22;28754;47.700;7.924;2022-07-22T05:20:50;19.40;99.90
42615;DHT22;28754;47.700;7.924;2022-07-22T05:23:37;19.40;99.90
42615;DHT22;28754;47.700;7.924;2022-07-22T05:26:24;19.40;99.90
42615;DHT22;28754;47.700;7.924;2022-07-22T05:29:11;19.40;99.90
42615;DHT22;28754;47.700;7.924;2022-07-22T05:31:57;19.50;99.90
42615;DHT22;28754;47.700;7.924;2022-07-22T05:34:45;19.50;99.90
42615;DHT22;28754;47.700;7.924;2022-07-22T05:37:33;19.50;99.90
42615;DHT22;28754;47.700;7.924;2022-07-22T05:40:20;19.60;99.90
42615;DHT22;28754;47.700;7.924;2022-07-22T05:43:07;19.60;99.90
42615;DHT22;28754;47.700;7.924;2022-07-22T05:45:54;19.60;99.90
42615;DHT22;28754;47.700;7.924;2022-07-22T05:48:42;19.70;99.90
42615;DHT22;28754;47.700;7.924;2022-07-22T05:51:28;19.70;99.90
42615;DHT22;28754;47.700;7.924;2022-07-22T05:54:15;19.80;99.90
42615;DHT22;28754;47.700;7.924;2022-07-22T05:57:02;19.80;99.90
42615;DHT22;28754;47.700;7.924;2022-07-22T05:59:49;19.90;99.90
42615;DHT22;28754;47.700;7.924;2022-07-22T06:02:36;20.00;99.90
42615;DHT22;28754;47.700;7.924;2022-07-22T06:05:23;20.10;99.90
42615;DHT22;28754;47.700;7.924;2022-07-22T06:08:10;20.10;99.90
42615;DHT22;28754;47.700;7.924;2022-07-22T06:11:07;20.20;99.90
42615;DHT22;28754;47.700;7.924;2022-07-22T06:13:54;20.40;99.90
42615;DHT22;28754;47.700;7.924;2022-07-22T06:16:41;20.50;99.90
42615;DHT22;28754;47.700;7.924;2022-07-22T06:19:27;20.60;99.90
42615;DHT22;28754;47.700;7.924;2022-07-22T06:22:15;20.60;99.90
42615;DHT22;28754;47.700;7.924;2022-07-22T06:25:04;20.80;99.90
42615;DHT22;28754;47.700;7.924;2022-07-22T06:27:51;20.90;99.90
42615;DHT22;28754;47.700;7.924;2022-07-22T06:30:39;20.90;99.90
42615;DHT22;28754;47.700;7.924;2022-07-22T06:33:26;21.10;99.90
42615;DHT22;28754;47.700;7.924;2022-07-22T06:36:13;21.10;99.90
42615;DHT22;28754;47.700;7.924;2022-07-22T06:39:01;21.20;99.90
42615;DHT22;28754;47.700;7.924;2022-07-22T06:42:05;21.30;99.90
42615;DHT22;28754;47.700;7.924;2022-07-22T06:45:12;21.30;99.90
42615;DHT22;28754;47.700;7.924;2022-07-22T06:48:25;21.40;99.90
42615;DHT22;28754;47.700;7.924;2022-07-22T06:51:11;21.60;99.90
42615;DHT22;28754;47.700;7.924;2022-07-22T06:53:58;21.60;99.90
42615;DHT22;28754;47.700;7.924;2022-07-22T06:56:45;21.60;99.90
42615;DHT22;28754;47.700;7.924;2022-07-22T06:59:37;21.60;99.90
42615;DHT22;28754;47.700;7.924;2022-07-22T07:02:28;21.70;99.90
42615;DHT22;28754;47.700;7.924;2022-07-22T07:05:15;21.80;99.90
42615;DHT22;28754;47.700;7.924;2022-07-22T07:08:02;21.90;99.90
42615;DHT22;28754;47.700;7.924;2022-07-22T07:10:49;22.10;99.90
42615;DHT22;28754;47.700;7.924;2022-07-22T07:13:37;22.10;99.90
42615;DHT22;28754;47.700;7.924;2022-07-22T07:16:24;22.20;99.90
42615;DHT22;28754;47.700;7.924;2022-07-22T07:19:10;22.30;99.90
42615;DHT22;28754;47.700;7.924;2022-07-22T07:21:57;22.30;99.90
42615;DHT22;28754;47.700;7.924;2022-07-22T07:24:44;22.50;99.90
42615;DHT22;28754;47.700;7.924;2022-07-22T07:27:31;22.50;99.90
42615;DHT22;28754;47.700;7.924;2022-07-22T07:30:18;22.60;99.90
42615;DHT22;28754;47.700;7.924;2022-07-22T07:33:04;22.70;99.90
42615;DHT22;28754;47.700;7.924;2022-07-22T07:35:51;22.80;99.90
42615;DHT22;28754;47.700;7.924;2022-07-22T07:38:47;22.90;99.90
42615;DHT22;28754;47.700;7.924;2022-07-22T07:41:35;23.20;99.90
42615;DHT22;28754;47.700;7.924;2022-07-22T07:44:23;23.30;99.90
42615;DHT22;28754;47.700;7.924;2022-07-22T07:47:09;23.20;99.90
42615;DHT22;28754;47.700;7.924;2022-07-22T07:49:57;23.40;99.90
42615;DHT22;28754;47.700;7.924;2022-07-22T07:52:46;23.60;99.90
42615;DHT22;28754;47.700;7.924;2022-07-22T07:55:35;23.90;99.90
42615;DHT22;28754;47.700;7.924;2022-07-22T07:58:24;23.70;99.90
42615;DHT22;28754;47.700;7.924;2022-07-22T08:01:11;23.80;99.90
42615;DHT22;28754;47.700;7.924;2022-07-22T08:03:58;23.80;99.90
42615;DHT22;28754;47.700;7.924;2022-07-22T08:06:45;23.80;99.90
42615;DHT22;28754;47.700;7.924;2022-07-22T08:09:33;23.90;99.90
42615;DHT22;28754;47.700;7.924;2022-07-22T08:12:24;24.00;99.90
42615;DHT22;28754;47.700;7.924;2022-07-22T08:15:30;24.00;99.90
42615;DHT22;28754;47.700;7.924;2022-07-22T08:18:21;24.10;99.90
42615;DHT22;28754;47.700;7.924;2022-07-22T08:21:07;24.40;99.90
42615;DHT22;28754;47.700;7.924;2022-07-22T08:24:00;24.60;99.90
42615;DHT22;28754;47.700;7.924;2022-07-22T08:26:48;24.70;99.90
42615;DHT22;28754;47.700;7.924;2022-07-22T08:29:35;24.70;99.90
42615;DHT22;28754;47.700;7.924;2022-07-22T08:32:22;24.80;99.90
42615;DHT22;28754;47.700;7.924;2022-07-22T08:35:09;24.80;99.90
42615;DHT22;28754;47.700;7.924;2022-07-22T08:37:57;24.60;99.90
42615;DHT22;28754;47.700;7.924;2022-07-22T08:40:45;24.80;99.90
42615;DHT22;28754;47.700;7.924;2022-07-22T08:43:35;24.80;99.90
42615;DHT22;28754;47.700;7.924;2022-07-22T08:46:26;25.00;99.90
42615;DHT22;28754;47.700;7.924;2022-07-22T08:49:32;25.00;99.90
42615;DHT22;28754;47.700;7.924;2022-07-22T08:52:45;25.00;99.90
42615;DHT22;28754;47.700;7.924;2022-07-22T08:55:32;25.00;99.90
42615;DHT22;28754;47.700;7.924;2022-07-22T08:58:19;25.00;99.90
42615;DHT22;28754;47.700;7.924;2022-07-22T09:01:11;25.30;99.90
42615;DHT22;28754;47.700;7.924;2022-07-22T09:04:05;25.50;99.90
42615;DHT22;28754;47.700;7.924;2022-07-22T09:06:55;25.30;99.90
42615;DHT22;28754;47.700;7.924;2022-07-22T09:09:42;25.40;99.90
42615;DHT22;28754;47.700;7.924;2022-07-22T09:13:00;25.50;99.90
42615;DHT22;28754;47.700;7.924;2022-07-22T09:16:15;25.60;99.90
42615;DHT22;28754;47.700;7.924;2022-07-22T09:19:32;25.70;99.90
42615;DHT22;28754;47.700;7.924;2022-07-22T09:22:47;25.80;99.90
42615;DHT22;28754;47.700;7.924;2022-07-22T09:25:41;25.90;99.90
42615;DHT22;28754;47.700;7.924;2022-07-22T09:29:05;26.10;99.90
42615;DHT22;28754;47.700;7.924;2022-07-22T09:32:06;26.20;99.90
42615;DHT22;28754;47.700;7.924;2022-07-22T09:35:14;26.10;99.90
42615;DHT22;28754;47.700;7.924;2022-07-22T09:38:09;26.20;99.90
42615;DHT22;28754;47.700;7.924;2022-07-22T09:40:58;26.20;99.90
42615;DHT22;28754;47.700;7.924;2022-07-22T09:43:45;26.20;99.90
42615;DHT22;28754;47.700;7.924;2022-07-22T09:46:37;26.50;99.90
42615;DHT22;28754;47.700;7.924;2022-07-22T09:49:32;26.60;99.90
42615;DHT22;28754;47.700;7.924;2022-07-22T09:52:50;26.60;99.90
42615;DHT22;28754;47.700;7.924;2022-07-22T09:55:45;26.60;99.90
42615;DHT22;28754;47.700;7.924;2022-07-22T09:58:32;26.50;99.90
42615;DHT22;28754;47.700;7.924;2022-07-22T10:01:21;26.80;99.90
42615;DHT22;28754;47.700;7.924;2022-07-22T10:04:09;26.80;99.90
42615;DHT22;28754;47.700;7.924;2022-07-22T10:06:57;26.90;99.90
42615;DHT22;28754;47.700;7.924;2022-07-22T10:09:51;27.20;99.90
42615;DHT22;28754;47.700;7.924;2022-07-22T10:12:40;27.10;99.90
42615;DHT22;28754;47.700;7.924;2022-07-22T10:15:30;27.30;99.90
42615;DHT22;28754;47.700;7.924;2022-07-22T10:18:18;27.30;99.90
42615;DHT22;28754;47.700;7.924;2022-07-22T10:21:09;27.20;99.90
42615;DHT22;28754;47.700;7.924;2022-07-22T10:24:17;27.30;99.90
42615;DHT22;28754;47.700;7.924;2022-07-22T10:27:10;27.60;99.90
42615;DHT22;28754;47.700;7.924;2022-07-22T10:29:59;27.10;99.90
42615;DHT22;28754;47.700;7.924;2022-07-22T10:33:14;27.40;99.90
42615;DHT22;28754;47.700;7.924;2022-07-22T10:36:04;27.10;99.90
42615;DHT22;28754;47.700;7.924;2022-07-22T10:39:11;27.70;99.90
42615;DHT22;28754;47.700;7.924;2022-07-22T10:41:59;27.90;99.90
42615;DHT22;28754;47.700;7.924;2022-07-22T10:44:48;28.20;99.90
42615;DHT22;28754;47.700;7.924;2022-07-22T10:47:55;28.20;99.90
42615;DHT22;28754;47.700;7.924;2022-07-22T10:50:54;28.40;99.90
42615;DHT22;28754;47.700;7.924;2022-07-22T10:54:02;28.40;99.90
42615;DHT22;28754;47.700;7.924;2022-07-22T10:56:52;28.30;99.90
42615;DHT22;28754;47.700;7.924;2022-07-22T10:59:53;27.90;99.90
42615;DHT22;28754;47.700;7.924;2022-07-22T11:03:23;27.80;99.90
42615;DHT22;28754;47.700;7.924;2022-07-22T11:07:08;27.90;99.90
42615;DHT22;28754;47.700;7.924;2022-07-22T11:18:16;28.50;99.90
42615;DHT22;28754;47.700;7.924;2022-07-22T11:21:04;28.50;99.90
42615;DHT22;28754;47.700;7.924;2022-07-22T11:24:25;28.70;99.90
42615;DHT22;28754;47.700;7.924;2022-07-22T11:27:41;28.50;99.90
42615;DHT22;28754;47.700;7.924;2022-07-22T11:30:38;28.80;99.90
42615;DHT22;28754;47.700;7.924;2022-07-22T11:33:27;28.90;99.90
42615;DHT22;28754;47.700;7.924;2022-07-22T11:36:15;28.90;99.90
42615;DHT22;28754;47.700;7.924;2022-07-22T11:39:04;29.20;99.90
42615;DHT22;28754;47.700;7.924;2022-07-22T11:42:25;29.00;99.90
42615;DHT22;28754;47.700;7.924;2022-07-22T11:45:12;28.80;99.90
42615;DHT22;28754;47.700;7.924;2022-07-22T11:47:58;28.80;99.90
42615;DHT22;28754;47.700;7.924;2022-07-22T11:51:02;28.90;99.90
42615;DHT22;28754;47.700;7.924;2022-07-22T11:53:49;29.00;99.90
42615;DHT22;28754;47.700;7.924;2022-07-22T11:59:28;29.40;99.90
42615;DHT22;28754;47.700;7.924;2022-07-22T12:02:15;29.40;99.90
42615;DHT22;28754;47.700;7.924;2022-07-22T12:05:08;29.50;99.90
42615;DHT22;28754;47.700;7.924;2022-07-22T12:14:16;29.10;99.90
42615;DHT22;28754;47.700;7.924;2022-07-22T12:36:47;29.60;99.90
42615;DHT22;28754;47.700;7.924;2022-07-22T12:40:07;29.20;99.90
42615;DHT22;28754;47.700;7.924;2022-07-22T12:43:11;29.00;99.90
42615;DHT22;28754;47.700;7.924;2022-07-22T12:46:12;29.40;99.90
42615;DHT22;28754;47.700;7.924;2022-07-22T12:53:17;29.60;99.90
42615;DHT22;28754;47.700;7.924;2022-07-22T12:56:15;29.80;99.90
42615;DHT22;28754;47.700;7.924;2022-07-22T12:59:13;30.30;99.90
42615;DHT22;28754;47.700;7.924;2022-07-22T13:02:06;29.70;99.90
42615;DHT22;28754;47.700;7.924;2022-07-22T13:04:52;30.10;99.90
42615;DHT22;28754;47.700;7.924;2022-07-22T13:07:40;29.80;99.90
42615;DHT22;28754;47.700;7.924;2022-07-22T13:10:28;30.00;99.90
42615;DHT22;28754;47.700;7.924;2022-07-22T13:13:15;30.40;99.90
42615;DHT22;28754;47.700;7.924;2022-07-22T13:16:01;30.70;99.90
42615;DHT22;28754;47.700;7.924;2022-07-22T13:18:50;30.80;99.90
42615;DHT22;28754;47.700;7.924;2022-07-22T13:21:37;30.80;99.90
42615;DHT22;28754;47.700;7.924;2022-07-22T13:24:24;31.10;99.90
42615;DHT22;28754;47.700;7.924;2022-07-22T13:27:11;30.70;99.90
42615;DHT22;28754;47.700;7.924;2022-07-22T13:29:57;31.10;99.90
42615;DHT22;28754;47.700;7.924;2022-07-22T13:32:44;30.80;99.90
42615;DHT22;28754;47.700;7.924;2022-07-22T13:35:31;30.10;99.90
42615;DHT22;28754;47.700;7.924;2022-07-22T13:38:18;30.20;99.90
42615;DHT22;28754;47.700;7.924;2022-07-22T13:41:05;30.30;99.90
42615;DHT22;28754;47.700;7.924;2022-07-22T13:44:02;30.20;99.90
42615;DHT22;28754;47.700;7.924;2022-07-22T13:46:53;30.50;99.90
42615;DHT22;28754;47.700;7.924;2022-07-22T13:49:40;30.50;99.90
42615;DHT22;28754;47.700;7.924;2022-07-22T13:52:27;30.30;99.90
42615;DHT22;28754;47.700;7.924;2022-07-22T13:55:14;30.00;99.90
42615;DHT22;28754;47.700;7.924;2022-07-22T13:58:05;30.10;99.90
42615;DHT22;28754;47.700;7.924;2022-07-22T14:00:52;30.50;99.90
42615;DHT22;28754;47.700;7.924;2022-07-22T14:03:38;31.00;99.90
42615;DHT22;28754;47.700;7.924;2022-07-22T14:06:25;30.50;99.50
42615;DHT22;28754;47.700;7.924;2022-07-22T14:09:12;30.50;99.90
42615;DHT22;28754;47.700;7.924;2022-07-22T14:11:59;30.20;99.90
42615;DHT22;28754;47.700;7.924;2022-07-22T14:14:46;30.20;99.90
42615;DHT22;28754;47.700;7.924;2022-07-22T14:17:32;30.40;99.90
42615;DHT22;28754;47.700;7.924;2022-07-22T14:20:19;30.50;99.90
42615;DHT22;28754;47.700;7.924;2022-07-22T14:23:07;30.20;99.90
42615;DHT22;28754;47.700;7.924;2022-07-22T14:25:55;30.60;99.90
42615;DHT22;28754;47.700;7.924;2022-07-22T14:28:42;31.10;99.90
42615;DHT22;28754;47.700;7.924;2022-07-22T14:31:37;30.90;99.90
42615;DHT22;28754;47.700;7.924;2022-07-22T14:34:26;30.90;99.90
42615;DHT22;28754;47.700;7.924;2022-07-22T14:37:15;31.10;99.90
42615;DHT22;28754;47.700;7.924;2022-07-22T14:40:15;31.40;99.90
42615;DHT22;28754;47.700;7.924;2022-07-22T14:47:55;31.70;99.90
42615;DHT22;28754;47.700;7.924;2022-07-22T14:50:42;31.40;99.90
42615;DHT22;28754;47.700;7.924;2022-07-22T14:53:34;31.10;99.90
42615;DHT22;28754;47.700;7.924;2022-07-22T14:56:40;31.40;99.90
42615;DHT22;28754;47.700;7.924;2022-07-22T15:00:07;31.40;99.90
42615;DHT22;28754;47.700;7.924;2022-07-22T15:03:04;31.50;99.90
42615;DHT22;28754;47.700;7.924;2022-07-22T15:10:51;31.30;99.90
42615;DHT22;28754;47.700;7.924;2022-07-22T15:26:15;30.30;99.90
42615;DHT22;28754;47.700;7.924;2022-07-22T15:29:14;30.40;99.90
42615;DHT22;28754;47.700;7.924;2022-07-22T15:32:01;30.20;99.90
42615;DHT22;28754;47.700;7.924;2022-07-22T15:34:51;30.40;99.90
42615;DHT22;28754;47.700;7.924;2022-07-22T15:37:41;30.40;99.90
42615;DHT22;28754;47.700;7.924;2022-07-22T15:40:27;30.50;99.90
42615;DHT22;28754;47.700;7.924;2022-07-22T15:43:14;30.30;99.90
42615;DHT22;28754;47.700;7.924;2022-07-22T15:46:01;30.00;99.90
42615;DHT22;28754;47.700;7.924;2022-07-22T15:48:48;30.00;99.90
42615;DHT22;28754;47.700;7.924;2022-07-22T15:51:35;30.00;99.90
42615;DHT22;28754;47.700;7.924;2022-07-22T15:54:22;30.20;99.90
42615;DHT22;28754;47.700;7.924;2022-07-22T15:57:13;30.20;99.90
42615;DHT22;28754;47.700;7.924;2022-07-22T16:00:58;30.10;99.90
42615;DHT22;28754;47.700;7.924;2022-07-22T16:04:21;30.30;99.90
42615;DHT22;28754;47.700;7.924;2022-07-22T16:20:22;30.10;99.90
42615;DHT22;28754;47.700;7.924;2022-07-22T16:23:14;29.80;99.90
42615;DHT22;28754;47.700;7.924;2022-07-22T16:26:04;29.70;99.90
42615;DHT22;28754;47.700;7.924;2022-07-22T16:28:51;29.60;99.90
42615;DHT22;28754;47.700;7.924;2022-07-22T16:31:37;29.60;99.90
42615;DHT22;28754;47.700;7.924;2022-07-22T16:34:24;29.50;99.90
42615;DHT22;28754;47.700;7.924;2022-07-22T16:37:11;29.40;99.90
42615;DHT22;28754;47.700;7.924;2022-07-22T16:39:57;29.30;99.90
42615;DHT22;28754;47.700;7.924;2022-07-22T16:42:44;29.20;99.90
42615;DHT22;28754;47.700;7.924;2022-07-22T16:45:31;29.10;99.90
42615;DHT22;28754;47.700;7.924;2022-07-22T16:48:18;28.90;99.90
42615;DHT22;28754;47.700;7.924;2022-07-22T16:51:04;28.90;99.90
42615;DHT22;28754;47.700;7.924;2022-07-22T16:53:51;28.90;99.90
42615;DHT22;28754;47.700;7.924;2022-07-22T16:56:38;28.70;99.90
42615;DHT22;28754;47.700;7.924;2022-07-22T16:59:25;28.80;99.90
42615;DHT22;28754;47.700;7.924;2022-07-22T17:02:11;28.80;99.90
42615;DHT22;28754;47.700;7.924;2022-07-22T17:04:59;28.50;99.90
42615;DHT22;28754;47.700;7.924;2022-07-22T17:07:45;28.60;99.90
42615;DHT22;28754;47.700;7.924;2022-07-22T17:10:32;28.60;99.90
42615;DHT22;28754;47.700;7.924;2022-07-22T17:13:19;28.60;99.90
42615;DHT22;28754;47.700;7.924;2022-07-22T17:16:06;28.60;99.90
42615;DHT22;28754;47.700;7.924;2022-07-22T17:18:53;28.50;99.90
42615;DHT22;28754;47.700;7.924;2022-07-22T17:21:39;28.30;99.90
42615;DHT22;28754;47.700;7.924;2022-07-22T17:24:26;28.30;99.90
42615;DHT22;28754;47.700;7.924;2022-07-22T17:27:16;28.10;99.90
42615;DHT22;28754;47.700;7.924;2022-07-22T17:30:03;28.10;99.90
42615;DHT22;28754;47.700;7.924;2022-07-22T17:32:51;27.90;99.90
42615;DHT22;28754;47.700;7.924;2022-07-22T17:35:38;27.80;99.90
42615;DHT22;28754;47.700;7.924;2022-07-22T17:38:27;27.70;99.90
42615;DHT22;28754;47.700;7.924;2022-07-22T17:41:14;27.70;99.90
42615;DHT22;28754;47.700;7.924;2022-07-22T17:44:01;27.80;99.90
42615;DHT22;28754;47.700;7.924;2022-07-22T17:46:47;27.90;99.90
42615;DHT22;28754;47.700;7.924;2022-07-22T17:49:34;27.80;99.90
42615;DHT22;28754;47.700;7.924;2022-07-22T17:52:21;27.70;99.90
42615;DHT22;28754;47.700;7.924;2022-07-22T17:55:08;27.50;99.90
42615;DHT22;28754;47.700;7.924;2022-07-22T17:57:55;27.40;99.90
42615;DHT22;28754;47.700;7.924;2022-07-22T18:00:41;27.30;99.90
42615;DHT22;28754;47.700;7.924;2022-07-22T18:03:28;27.30;99.90
42615;DHT22;28754;47.700;7.924;2022-07-22T18:06:15;27.30;99.90
42615;DHT22;28754;47.700;7.924;2022-07-22T18:09:02;27.20;99.90
42615;DHT22;28754;47.700;7.924;2022-07-22T18:11:49;27.20;99.90
42615;DHT22;28754;47.700;7.924;2022-07-22T18:14:36;27.10;99.90
42615;DHT22;28754;47.700;7.924;2022-07-22T18:17:22;27.10;99.90
42615;DHT22;28754;47.700;7.924;2022-07-22T18:20:12;27.00;99.90
42615;DHT22;28754;47.700;7.924;2022-07-22T18:22:59;27.00;99.90
42615;DHT22;28754;47.700;7.924;2022-07-22T18:25:46;27.00;99.90
42615;DHT22;28754;47.700;7.924;2022-07-22T18:28:32;26.80;99.90
42615;DHT22;28754;47.700;7.924;2022-07-22T18:31:19;26.70;99.90
42615;DHT22;28754;47.700;7.924;2022-07-22T18:34:06;26.60;99.90
42615;DHT22;28754;47.700;7.924;2022-07-22T18:36:52;26.40;99.90
42615;DHT22;28754;47.700;7.924;2022-07-22T18:39:39;26.10;99.90
42615;DHT22;28754;47.700;7.924;2022-07-22T18:42:26;26.10;99.90
42615;DHT22;28754;47.700;7.924;2022-07-22T18:45:13;26.00;99.90
42615;DHT22;28754;47.700;7.924;2022-07-22T18:47:59;26.10;99.90
42615;DHT22;28754;47.700;7.924;2022-07-22T18:50:46;26.10;99.90
42615;DHT22;28754;47.700;7.924;2022-07-22T18:53:33;26.10;99.90
42615;DHT22;28754;47.700;7.924;2022-07-22T18:56:19;26.10;99.90
42615;DHT22;28754;47.700;7.924;2022-07-22T18:59:06;26.10;99.90
42615;DHT22;28754;47.700;7.924;2022-07-22T19:01:53;26.00;99.90
42615;DHT22;28754;47.700;7.924;2022-07-22T19:04:40;25.90;99.90
42615;DHT22;28754;47.700;7.924;2022-07-22T19:07:27;25.90;99.90
42615;DHT22;28754;47.700;7.924;2022-07-22T19:10:14;25.90;99.90
42615;DHT22;28754;47.700;7.924;2022-07-22T19:13:01;25.90;99.90